createdAt,value
2022-12-09T00:01:05.564Z,5.37
2022-12-09T00:03:33.168Z,5.41
2022-12-09T00:06:00.875Z,5.40
2022-12-09T00:08:28.560Z,5.35
2022-12-09T00:10:56.271Z,5.36
2022-12-09T00:13:23.929Z,5.38
2022-12-09T00:15:51.530Z,5.34
2022-12-09T00:18:20.417Z,5.37
2022-12-09T00:20:48.010Z,5.37
2022-12-09T00:23:15.445Z,5.33
2022-12-09T00:25:43.104Z,5.36
2022-12-09T00:28:10.811Z,5.39
2022-12-09T00:30:38.271Z,5.26
2022-12-09T00:33:05.885Z,5.32
2022-12-09T00:35:34.831Z,5.31
2022-12-09T00:38:02.480Z,5.30
2022-12-09T00:40:30.004Z,5.29
2022-12-09T00:42:57.449Z,5.28
2022-12-09T00:45:25.166Z,5.33
2022-12-09T00:47:53.079Z,5.35
2022-12-09T00:50:20.643Z,5.30
2022-12-09T00:52:49.423Z,5.32
2022-12-09T00:55:17.024Z,5.30
2022-12-09T00:57:44.663Z,5.29
2022-12-09T01:00:13.248Z,5.30
2022-12-09T01:02:40.905Z,5.28
2022-12-09T01:05:09.408Z,5.28
2022-12-09T01:07:37.702Z,5.20
2022-12-09T01:10:08.140Z,5.24
2022-12-09T01:12:35.775Z,5.20
2022-12-09T01:15:03.805Z,5.19
2022-12-09T01:17:31.304Z,5.16
2022-12-09T01:19:59.116Z,5.14
2022-12-09T01:22:26.916Z,5.16
2022-12-09T01:24:54.618Z,5.27
2022-12-09T01:27:23.792Z,5.28
2022-12-09T01:29:51.250Z,5.27
2022-12-09T01:32:19.104Z,5.29
2022-12-09T01:34:46.691Z,5.29
2022-12-09T01:37:14.684Z,5.30
2022-12-09T01:39:42.732Z,5.29
2022-12-09T01:42:19.859Z,5.30
2022-12-09T01:45:32.249Z,5.32
2022-12-09T01:48:06.161Z,5.36
2022-12-09T01:50:36.124Z,5.31
2022-12-09T01:53:03.967Z,5.29
2022-12-09T01:55:31.724Z,5.38
2022-12-09T01:57:59.636Z,5.31
2022-12-09T02:00:27.406Z,5.38
2022-12-09T02:02:57.324Z,5.40
2022-12-09T02:05:26.778Z,5.38
2022-12-09T02:07:54.445Z,5.37
2022-12-09T02:10:22.584Z,5.36
2022-12-09T02:12:59.456Z,5.35
2022-12-09T02:15:35.043Z,5.33
2022-12-09T02:18:04.771Z,5.30
2022-12-09T02:20:38.243Z,5.31
2022-12-09T02:23:12.323Z,5.33
2022-12-09T02:25:44.769Z,5.25
2022-12-09T02:28:36.816Z,5.26
2022-12-09T02:31:23.110Z,5.29
2022-12-09T02:34:11.643Z,5.30
2022-12-09T02:36:55.880Z,5.16
2022-12-09T02:39:30.565Z,5.22
2022-12-09T02:42:00.932Z,5.26
2022-12-09T02:44:29.123Z,5.22
2022-12-09T02:46:58.233Z,5.25
2022-12-09T02:49:30.235Z,5.29
2022-12-09T02:51:59.417Z,5.27
2022-12-09T02:54:31.300Z,5.26
2022-12-09T02:57:03.890Z,5.19
2022-12-09T02:59:31.560Z,5.24
2022-12-09T03:02:06.684Z,5.26
2022-12-09T03:04:35.850Z,5.21
2022-12-09T03:07:12.332Z,5.18
2022-12-09T03:09:45.811Z,5.26
2022-12-09T03:12:19.438Z,5.31
2022-12-09T03:14:52.802Z,5.25
2022-12-09T03:17:26.700Z,5.25
2022-12-09T03:19:59.590Z,5.22
2022-12-09T03:22:31.543Z,5.28
2022-12-09T03:25:04.867Z,5.12
2022-12-09T03:27:37.234Z,5.15
2022-12-09T03:30:09.368Z,5.22
2022-12-09T03:32:39.301Z,5.26
2022-12-09T03:35:14.451Z,5.21
2022-12-09T03:37:44.852Z,5.21
2022-12-09T03:40:17.589Z,5.25
2022-12-09T03:42:50.061Z,5.18
2022-12-09T03:45:20.230Z,5.17
2022-12-09T03:47:48.264Z,5.15
2022-12-09T03:50:17.447Z,5.05
2022-12-09T03:52:49.513Z,5.09
2022-12-09T03:55:22.429Z,5.01
2022-12-09T03:57:54.045Z,4.97
2022-12-09T04:00:21.716Z,4.95
2022-12-09T04:02:49.882Z,4.91
2022-12-09T04:05:19.151Z,4.91
2022-12-09T04:07:47.038Z,4.82
2022-12-09T04:10:14.968Z,4.78
2022-12-09T04:12:42.869Z,4.78
2022-12-09T04:15:11.011Z,4.76
2022-12-09T04:17:38.629Z,4.71
2022-12-09T04:20:07.980Z,4.71
2022-12-09T04:22:37.080Z,4.70
2022-12-09T04:25:05.180Z,4.70
2022-12-09T04:27:32.716Z,4.66
2022-12-09T04:30:00.164Z,4.57
2022-12-09T04:32:29.750Z,4.56
2022-12-09T04:34:57.341Z,4.50
2022-12-09T04:37:25.164Z,4.45
2022-12-09T04:39:54.100Z,4.43
2022-12-09T04:42:21.848Z,4.34
2022-12-09T04:44:49.645Z,4.24
2022-12-09T04:47:17.283Z,4.24
2022-12-09T04:49:44.952Z,4.20
2022-12-09T04:52:12.565Z,4.08
2022-12-09T04:54:40.031Z,4.09
2022-12-09T04:57:09.798Z,4.16
2022-12-09T04:59:37.376Z,4.12
2022-12-09T05:02:05.704Z,4.11
2022-12-09T05:04:33.720Z,4.17
2022-12-09T05:07:01.633Z,4.11
2022-12-09T05:09:29.524Z,4.10
2022-12-09T05:11:58.189Z,4.05
2022-12-09T05:14:27.504Z,4.11
2022-12-09T05:16:55.373Z,4.30
2022-12-09T05:19:23.506Z,4.26
2022-12-09T05:21:51.358Z,4.19
2022-12-09T05:24:19.042Z,4.09
2022-12-09T05:26:46.878Z,4.08
2022-12-09T05:29:19.340Z,4.04
2022-12-09T05:31:52.080Z,4.00
2022-12-09T05:34:20.464Z,3.95
2022-12-09T05:36:48.613Z,4.01
2022-12-09T05:39:16.430Z,4.08
2022-12-09T05:41:46.635Z,4.11
2022-12-09T05:44:14.621Z,4.11
2022-12-09T05:46:42.729Z,4.12
2022-12-09T05:49:11.933Z,4.17
2022-12-09T05:51:39.740Z,4.20
2022-12-09T05:54:07.611Z,4.35
2022-12-09T05:56:35.510Z,4.42
2022-12-09T05:59:03.172Z,4.45
2022-12-09T06:01:31.316Z,4.48
2022-12-09T06:03:59.713Z,4.51
2022-12-09T06:06:30.211Z,4.49
2022-12-09T06:09:01.475Z,4.42
2022-12-09T06:11:30.020Z,4.41
2022-12-09T06:13:57.849Z,4.33
2022-12-09T06:16:26.089Z,4.26
2022-12-09T06:18:54.314Z,4.28
2022-12-09T06:21:22.240Z,4.32
2022-12-09T06:23:52.252Z,4.32
2022-12-09T06:26:22.321Z,4.29
2022-12-09T06:28:50.366Z,4.19
2022-12-09T06:31:18.973Z,4.18
2022-12-09T06:33:56.481Z,4.03
2022-12-09T06:36:26.293Z,3.93
2022-12-09T06:38:56.837Z,3.80
2022-12-09T06:41:25.384Z,3.74
2022-12-09T06:43:53.264Z,3.80
2022-12-09T06:46:24.825Z,3.71
2022-12-09T06:48:53.157Z,3.78
2022-12-09T06:51:22.251Z,3.67
2022-12-09T06:53:50.091Z,3.59
2022-12-09T06:56:19.651Z,3.57
2022-12-09T06:58:48.417Z,3.61
2022-12-09T07:01:18.650Z,3.54
2022-12-09T07:03:48.436Z,3.56
2022-12-09T07:06:22.771Z,3.59
2022-12-09T07:08:50.992Z,3.53
2022-12-09T07:11:20.848Z,3.53
2022-12-09T07:13:48.575Z,3.57
2022-12-09T07:16:16.394Z,3.64
2022-12-09T07:18:44.113Z,3.71
2022-12-09T07:21:13.956Z,3.83
2022-12-09T07:23:41.645Z,3.75
2022-12-09T07:26:10.176Z,3.81
2022-12-09T07:28:42.459Z,3.79
2022-12-09T07:31:18.699Z,3.81
2022-12-09T07:33:47.051Z,3.88
2022-12-09T07:36:20.715Z,3.91
2022-12-09T07:38:49.588Z,3.92
2022-12-09T07:41:19.239Z,3.84
2022-12-09T07:43:48.963Z,3.80
2022-12-09T07:46:18.591Z,3.83
2022-12-09T07:48:48.058Z,3.87
2022-12-09T07:51:16.316Z,3.90
2022-12-09T07:53:43.996Z,3.91
2022-12-09T07:56:14.774Z,3.90
2022-12-09T07:58:43.143Z,3.85
2022-12-09T08:01:14.249Z,4.00
2022-12-09T08:03:42.621Z,4.00
2022-12-09T08:06:13.912Z,4.00
2022-12-09T08:08:42.070Z,4.09
2022-12-09T08:11:12.011Z,4.13
2022-12-09T08:13:42.267Z,4.16
2022-12-09T08:16:13.445Z,4.26
2022-12-09T08:18:42.071Z,4.26
2022-12-09T08:21:11.908Z,4.23
2022-12-09T08:23:40.265Z,4.25
2022-12-09T08:26:08.418Z,4.23
2022-12-09T08:28:36.082Z,4.27
2022-12-09T08:31:08.177Z,4.25
2022-12-09T08:33:38.219Z,4.18
2022-12-09T08:36:11.648Z,4.19
2022-12-09T08:38:40.032Z,4.20
2022-12-09T08:41:12.771Z,4.22
2022-12-09T08:43:41.402Z,4.19
2022-12-09T08:46:11.400Z,4.23
2022-12-09T08:48:42.051Z,4.22
2022-12-09T08:51:12.362Z,4.32
2022-12-09T08:53:40.758Z,4.31
2022-12-09T08:56:10.419Z,4.19
2022-12-09T08:58:41.018Z,4.31
2022-12-09T09:01:15.150Z,4.36
2022-12-09T09:03:46.022Z,4.34
2022-12-09T09:06:15.626Z,4.33
2022-12-09T09:08:44.985Z,4.38
2022-12-09T09:11:14.577Z,4.51
2022-12-09T09:13:44.527Z,4.58
2022-12-09T09:16:14.958Z,4.54
2022-12-09T09:18:44.974Z,4.47
2022-12-09T09:21:15.379Z,4.42
2022-12-09T09:23:44.632Z,4.51
2022-12-09T09:26:13.791Z,4.57
2022-12-09T09:28:41.997Z,4.61
2022-12-09T09:31:12.549Z,4.63
2022-12-09T09:33:40.766Z,4.59
2022-12-09T09:36:14.294Z,4.68
2022-12-09T09:38:42.479Z,4.66
2022-12-09T09:41:29.319Z,4.61
2022-12-09T09:43:58.245Z,4.61
2022-12-09T09:46:35.080Z,4.64
2022-12-09T09:49:04.898Z,4.66
2022-12-09T09:51:36.180Z,4.74
2022-12-09T09:54:08.734Z,4.74
2022-12-09T09:56:43.773Z,4.70
2022-12-09T09:59:21.544Z,4.74
2022-12-09T10:01:58.381Z,4.75
2022-12-09T10:04:35.596Z,4.74
2022-12-09T10:07:14.267Z,4.83
2022-12-09T10:09:50.265Z,4.86
2022-12-09T10:12:28.154Z,4.91
2022-12-09T10:14:59.094Z,4.88
2022-12-09T10:17:30.371Z,4.89
2022-12-09T10:20:03.562Z,4.91
2022-12-09T10:22:43.899Z,4.95
2022-12-09T10:25:18.824Z,5.05
2022-12-09T10:27:53.321Z,5.09
2022-12-09T10:30:22.456Z,5.10
2022-12-09T10:32:50.520Z,5.08
2022-12-09T10:35:21.058Z,5.12
2022-12-09T10:37:53.483Z,5.13
2022-12-09T10:40:25.651Z,5.20
2022-12-09T10:43:13.097Z,5.19
2022-12-09T10:46:16.883Z,5.24
2022-12-09T10:48:38.767Z,5.17
2022-12-09T10:51:12.467Z,5.19
2022-12-09T10:53:48.683Z,5.21
2022-12-09T10:56:20.993Z,5.25
2022-12-09T10:58:48.757Z,5.26
2022-12-09T11:01:17.465Z,5.25
2022-12-09T11:03:49.891Z,5.28
2022-12-09T11:06:24.643Z,5.24
2022-12-09T11:08:57.812Z,5.28
2022-12-09T11:11:43.732Z,5.16
2022-12-09T11:14:23.448Z,5.20
2022-12-09T11:16:53.769Z,5.16
2022-12-09T11:19:31.709Z,5.14
2022-12-09T11:22:38.506Z,5.25
2022-12-09T11:25:21.776Z,5.33
2022-12-09T11:27:53.254Z,5.42
2022-12-09T11:30:23.501Z,5.52
2022-12-09T11:32:58.710Z,5.52
2022-12-09T11:35:31.508Z,5.49
2022-12-09T11:38:03.270Z,5.57
2022-12-09T11:40:33.127Z,5.62
2022-12-09T11:43:00.949Z,5.51
2022-12-09T11:45:31.903Z,5.53
2022-12-09T11:48:33.688Z,5.58
2022-12-09T11:50:57.953Z,5.57
2022-12-09T11:53:29.598Z,5.52
2022-12-09T11:56:03.969Z,5.54
2022-12-09T11:58:40.167Z,5.55
2022-12-09T12:01:12.767Z,5.66
2022-12-09T12:03:46.468Z,5.68
2022-12-09T12:06:19.168Z,5.67
2022-12-09T12:08:50.581Z,5.78
2022-12-09T12:11:26.779Z,5.75
2022-12-09T12:14:02.103Z,5.81
2022-12-09T12:16:39.311Z,5.87
2022-12-09T12:19:16.087Z,5.95
2022-12-09T12:22:02.198Z,5.99
2022-12-09T12:24:53.824Z,5.94
2022-12-09T12:27:36.560Z,5.70
2022-12-09T12:30:07.689Z,5.84
2022-12-09T12:33:17.920Z,5.90
2022-12-09T12:35:57.233Z,5.92
2022-12-09T12:38:47.113Z,5.94
2022-12-09T12:41:22.915Z,5.96
2022-12-09T12:44:22.761Z,5.92
2022-12-09T12:47:02.909Z,5.86
2022-12-09T12:50:27.204Z,5.87
2022-12-09T12:53:01.780Z,5.69
2022-12-09T12:55:53.132Z,5.70
2022-12-09T12:58:36.205Z,5.58
2022-12-09T13:01:12.757Z,5.61
2022-12-09T13:03:51.760Z,5.59
2022-12-09T13:06:23.427Z,5.60
2022-12-09T13:09:02.902Z,5.68
2022-12-09T13:11:37.591Z,5.72
2022-12-09T13:14:12.502Z,5.85
2022-12-09T13:16:43.229Z,5.92
2022-12-09T13:19:17.522Z,6.01
2022-12-09T13:21:46.382Z,6.07
2022-12-09T13:24:26.666Z,6.15
2022-12-09T13:27:01.990Z,6.23
2022-12-09T13:29:40.720Z,6.30
2022-12-09T13:32:32.829Z,6.37
2022-12-09T13:35:07.522Z,6.29
2022-12-09T13:37:58.055Z,6.32
2022-12-09T13:40:32.606Z,6.33
2022-12-09T13:43:10.596Z,6.33
2022-12-09T13:45:49.465Z,6.30
2022-12-09T13:48:38.996Z,6.29
2022-12-09T13:51:06.709Z,6.20
2022-12-09T13:53:42.731Z,6.03
2022-12-09T13:56:22.727Z,5.98
2022-12-09T13:59:29.390Z,6.07
2022-12-09T14:02:00.254Z,6.11
2022-12-09T14:04:30.596Z,6.10
2022-12-09T14:07:10.315Z,6.10
2022-12-09T14:09:48.428Z,6.11
2022-12-09T14:12:43.939Z,6.09
2022-12-09T14:15:36.000Z,6.16
2022-12-09T14:18:06.480Z,6.10
2022-12-09T14:20:40.071Z,6.04
2022-12-09T14:23:19.200Z,5.91
2022-12-09T14:26:00.886Z,5.94
2022-12-09T14:29:00.112Z,5.87
2022-12-09T14:31:50.186Z,5.82
2022-12-09T14:34:26.910Z,5.77
2022-12-09T14:37:02.193Z,5.59
2022-12-09T14:39:35.982Z,5.67
2022-12-09T14:42:10.278Z,5.66
2022-12-09T14:44:44.718Z,5.71
2022-12-09T14:47:19.557Z,5.66
2022-12-09T14:49:49.444Z,5.70
2022-12-09T14:52:23.311Z,5.74
2022-12-09T14:54:52.470Z,5.67
2022-12-09T14:57:23.837Z,5.68
2022-12-09T14:59:54.147Z,5.73
2022-12-09T15:02:23.734Z,5.65
2022-12-09T15:04:52.829Z,5.71
2022-12-09T15:07:24.936Z,5.68
2022-12-09T15:09:57.013Z,5.58
2022-12-09T15:12:31.467Z,5.60
2022-12-09T15:15:03.683Z,5.54
2022-12-09T15:17:35.938Z,5.45
2022-12-09T15:20:05.004Z,5.47
2022-12-09T15:22:33.853Z,5.37
2022-12-09T15:25:02.999Z,5.27
2022-12-09T15:27:32.024Z,5.28
2022-12-09T15:29:59.733Z,5.19
2022-12-09T15:32:29.839Z,5.15
2022-12-09T15:35:16.425Z,5.24
2022-12-09T15:37:45.647Z,5.14
2022-12-09T15:40:18.135Z,4.92
2022-12-09T15:42:49.870Z,4.89
2022-12-09T15:45:22.074Z,4.81
2022-12-09T15:47:54.083Z,4.66
2022-12-09T15:50:24.865Z,4.61
2022-12-09T15:52:55.175Z,4.52
2022-12-09T15:55:27.625Z,4.45
2022-12-09T15:58:00.388Z,4.50
2022-12-09T16:00:28.109Z,4.36
2022-12-09T16:02:56.870Z,4.34
2022-12-09T16:05:26.283Z,4.25
2022-12-09T16:07:56.773Z,4.17
2022-12-09T16:10:26.806Z,4.13
2022-12-09T16:13:11.265Z,3.99
2022-12-09T16:15:44.857Z,3.94
2022-12-09T16:18:18.385Z,3.85
2022-12-09T16:20:58.498Z,3.92
2022-12-09T16:23:27.491Z,3.88
2022-12-09T16:26:06.455Z,3.91
2022-12-09T16:28:36.390Z,3.92
2022-12-09T16:31:16.361Z,3.84
2022-12-09T16:33:48.989Z,3.84
2022-12-09T16:36:20.553Z,3.91
2022-12-09T16:39:26.681Z,3.92
2022-12-09T16:42:01.503Z,3.88
2022-12-09T16:44:31.741Z,3.83
2022-12-09T16:47:14.353Z,3.93
2022-12-09T16:49:43.663Z,3.70
2022-12-09T16:52:13.549Z,3.66
2022-12-09T16:54:41.787Z,3.63
2022-12-09T16:57:14.300Z,3.63
2022-12-09T16:59:42.329Z,3.73
2022-12-09T17:02:23.988Z,3.64
2022-12-09T17:04:52.382Z,3.65
2022-12-09T17:07:19.821Z,3.61
2022-12-09T17:09:47.260Z,3.59
2022-12-09T17:12:16.291Z,3.64
2022-12-09T17:14:43.761Z,3.58
2022-12-09T17:17:11.256Z,3.59
2022-12-09T17:19:41.087Z,3.52
2022-12-09T17:22:08.670Z,3.53
2022-12-09T17:24:36.114Z,3.53
2022-12-09T17:27:03.696Z,3.46
2022-12-09T17:29:32.721Z,3.48
2022-12-09T17:32:00.401Z,3.46
2022-12-09T17:34:27.916Z,3.48
2022-12-09T17:36:55.896Z,3.57
2022-12-09T17:39:24.588Z,3.59
2022-12-09T17:41:52.150Z,3.60
2022-12-09T17:44:21.143Z,3.56
2022-12-09T17:46:50.472Z,3.53
2022-12-09T17:49:18.313Z,3.62
2022-12-09T17:51:46.099Z,3.47
2022-12-09T17:54:13.617Z,3.55
2022-12-09T17:56:41.068Z,3.58
2022-12-09T17:59:11.470Z,3.60
2022-12-09T18:01:41.017Z,3.52
2022-12-09T18:04:11.225Z,3.57
2022-12-09T18:06:40.546Z,3.51
2022-12-09T18:09:10.572Z,3.55
2022-12-09T18:11:38.725Z,3.61
2022-12-09T18:14:06.831Z,3.58
2022-12-09T18:16:34.597Z,3.54
2022-12-09T18:19:04.186Z,3.52
2022-12-09T18:21:33.872Z,3.51
2022-12-09T18:24:01.532Z,3.58
2022-12-09T18:26:33.018Z,3.61
2022-12-09T18:29:02.980Z,3.69
2022-12-09T18:31:30.609Z,3.64
2022-12-09T18:33:58.107Z,3.67
2022-12-09T18:36:28.037Z,3.65
2022-12-09T18:38:57.850Z,3.70
2022-12-09T18:41:28.982Z,3.64
2022-12-09T18:43:58.259Z,3.69
2022-12-09T18:46:28.593Z,3.61
2022-12-09T18:48:57.261Z,3.59
2022-12-09T18:51:25.184Z,3.53
2022-12-09T18:53:52.905Z,3.56
2022-12-09T18:56:21.736Z,3.57
2022-12-09T18:59:05.930Z,3.65
2022-12-09T19:01:39.218Z,3.53
2022-12-09T19:04:08.845Z,3.58
2022-12-09T19:06:39.668Z,3.58
2022-12-09T19:09:09.456Z,3.59
2022-12-09T19:11:40.008Z,3.67
2022-12-09T19:14:08.534Z,3.68
2022-12-09T19:16:36.509Z,3.58
2022-12-09T19:19:09.638Z,3.64
2022-12-09T19:21:38.499Z,3.57
2022-12-09T19:24:06.905Z,3.62
2022-12-09T19:26:36.268Z,3.58
2022-12-09T19:29:07.527Z,3.60
2022-12-09T19:31:36.808Z,3.59
2022-12-09T19:34:08.811Z,3.59
2022-12-09T19:36:36.436Z,3.61
2022-12-09T19:39:08.045Z,3.59
2022-12-09T19:41:35.998Z,3.55
2022-12-09T19:44:05.916Z,3.43
2022-12-09T19:46:33.981Z,3.45
2022-12-09T19:49:02.500Z,3.50
2022-12-09T19:51:29.953Z,3.49
2022-12-09T19:53:59.083Z,3.52
2022-12-09T19:56:27.292Z,3.50
2022-12-09T19:58:55.463Z,3.43
2022-12-09T20:01:25.542Z,3.42
2022-12-09T20:03:57.579Z,3.37
2022-12-09T20:06:25.618Z,3.41
2022-12-09T20:08:53.325Z,3.43
2022-12-09T20:11:23.464Z,3.42
2022-12-09T20:13:52.629Z,3.42
2022-12-09T20:16:23.461Z,3.37
2022-12-09T20:18:54.034Z,3.42
2022-12-09T20:21:22.538Z,3.45
2022-12-09T20:23:51.181Z,3.38
2022-12-09T20:26:20.790Z,3.45
2022-12-09T20:28:50.135Z,3.38
2022-12-09T20:31:20.513Z,3.37
2022-12-09T20:33:49.247Z,3.35
2022-12-09T20:36:20.286Z,3.40
2022-12-09T20:38:50.076Z,3.38
2022-12-09T20:41:17.834Z,3.43
2022-12-09T20:43:46.735Z,3.39
2022-12-09T20:46:16.492Z,3.28
2022-12-09T20:48:44.571Z,3.25
2022-12-09T20:51:16.036Z,3.27
2022-12-09T20:53:46.328Z,3.26
2022-12-09T20:56:15.250Z,3.18
2022-12-09T20:58:44.004Z,3.16
2022-12-09T21:01:14.713Z,3.15
2022-12-09T21:03:42.864Z,3.17
2022-12-09T21:06:12.272Z,3.17
2022-12-09T21:08:40.276Z,3.18
2022-12-09T21:11:10.936Z,3.30
2022-12-09T21:13:40.344Z,3.37
2022-12-09T21:16:10.165Z,3.33
2022-12-09T21:18:38.026Z,3.33
2022-12-09T21:21:07.176Z,3.25
2022-12-09T21:23:36.118Z,3.17
2022-12-09T21:26:05.407Z,3.14
2022-12-09T21:28:35.538Z,3.18
2022-12-09T21:31:08.399Z,3.20
2022-12-09T21:33:36.169Z,3.27
2022-12-09T21:36:06.548Z,3.21
2022-12-09T21:38:34.336Z,3.10
2022-12-09T21:41:03.470Z,3.15
2022-12-09T21:43:30.925Z,3.14
2022-12-09T21:46:02.500Z,3.16
2022-12-09T21:48:30.170Z,3.08
2022-12-09T21:50:58.766Z,3.11
2022-12-09T21:53:26.558Z,3.08
2022-12-09T21:55:54.464Z,3.10
2022-12-09T21:58:22.505Z,3.03
2022-12-09T22:00:51.126Z,3.11
2022-12-09T22:03:19.920Z,3.11
2022-12-09T22:05:47.393Z,3.02
2022-12-09T22:08:14.930Z,2.99
2022-12-09T22:10:42.477Z,3.03
2022-12-09T22:13:10.159Z,3.06
2022-12-09T22:15:37.918Z,3.10
2022-12-09T22:18:05.678Z,3.02
2022-12-09T22:21:15.569Z,3.04
2022-12-09T22:23:23.099Z,3.08
2022-12-09T22:25:50.584Z,3.06
2022-12-09T22:28:18.480Z,2.99
2022-12-09T22:30:45.980Z,2.99
2022-12-09T22:33:13.463Z,3.02
2022-12-09T22:35:42.318Z,3.02
2022-12-09T22:38:14.387Z,2.97
2022-12-09T22:40:42.540Z,3.00
2022-12-09T22:43:10.240Z,2.92
2022-12-09T22:45:40.147Z,2.98
2022-12-09T22:48:07.602Z,3.02
2022-12-09T22:50:36.396Z,2.95
2022-12-09T22:53:05.245Z,3.00
2022-12-09T22:55:32.690Z,3.04
2022-12-09T22:58:00.407Z,3.08
2022-12-09T23:00:27.885Z,3.02
2022-12-09T23:02:55.621Z,2.94
2022-12-09T23:05:23.339Z,2.87
2022-12-09T23:07:50.882Z,2.99
2022-12-09T23:10:19.771Z,2.95
2022-12-09T23:12:47.259Z,2.96
2022-12-09T23:15:14.801Z,2.93
2022-12-09T23:17:42.261Z,2.88
2022-12-09T23:20:10.666Z,3.01
2022-12-09T23:22:38.162Z,2.97
2022-12-09T23:25:06.152Z,2.90
2022-12-09T23:27:34.956Z,2.90
2022-12-09T23:30:02.621Z,2.93
2022-12-09T23:32:30.115Z,2.99
2022-12-09T23:34:57.576Z,3.05
2022-12-09T23:37:25.112Z,2.90
2022-12-09T23:39:52.769Z,2.89
2022-12-09T23:42:21.430Z,2.81
2022-12-09T23:44:50.474Z,2.83
2022-12-09T23:47:17.960Z,2.85
2022-12-09T23:49:45.405Z,2.83
2022-12-09T23:52:12.855Z,2.79
2022-12-09T23:54:40.528Z,2.96
2022-12-09T23:57:07.987Z,2.97
2022-12-09T23:59:35.453Z,2.96
